sensor_id;sensor_type;location;lat;lon;timestamp;temperature;humidity
18160;DHT22;9205;52.032;4.314;2023-06-10T00:00:19;21.80;99.90
18160;DHT22;9205;52.032;4.314;2023-06-10T00:02:47;21.80;99.90
18160;DHT22;9205;52.032;4.314;2023-06-10T00:05:15;21.80;99.90
18160;DHT22;9205;52.032;4.314;2023-06-10T00:07:49;21.80;99.90
18160;DHT22;9205;52.032;4.314;2023-06-10T00:10:21;21.70;99.90
18160;DHT22;9205;52.032;4.314;2023-06-10T00:12:50;21.60;99.90
18160;DHT22;9205;52.032;4.314;2023-06-10T00:15:17;21.60;99.90
18160;DHT22;9205;52.032;4.314;2023-06-10T00:17:45;21.60;99.90
18160;DHT22;9205;52.032;4.314;2023-06-10T00:20:13;21.60;99.90
18160;DHT22;9205;52.032;4.314;2023-06-10T00:22:43;21.50;99.90
18160;DHT22;9205;52.032;4.314;2023-06-10T00:25:14;21.50;99.90
18160;DHT22;9205;52.032;4.314;2023-06-10T00:27:42;21.50;99.90
18160;DHT22;9205;52.032;4.314;2023-06-10T00:30:10;21.50;99.90
18160;DHT22;9205;52.032;4.314;2023-06-10T00:32:41;21.50;99.90
18160;DHT22;9205;52.032;4.314;2023-06-10T00:35:08;21.40;99.90
18160;DHT22;9205;52.032;4.314;2023-06-10T00:37:36;21.40;99.90
18160;DHT22;9205;52.032;4.314;2023-06-10T00:40:05;21.40;99.90
18160;DHT22;9205;52.032;4.314;2023-06-10T00:42:37;21.30;99.90
18160;DHT22;9205;52.032;4.314;2023-06-10T00:45:05;21.30;99.90
18160;DHT22;9205;52.032;4.314;2023-06-10T00:47:35;21.30;99.90
18160;DHT22;9205;52.032;4.314;2023-06-10T00:50:04;21.20;99.90
18160;DHT22;9205;52.032;4.314;2023-06-10T00:52:33;21.20;99.90
18160;DHT22;9205;52.032;4.314;2023-06-10T00:55:04;21.20;99.90
18160;DHT22;9205;52.032;4.314;2023-06-10T00:57:33;21.20;99.90
18160;DHT22;9205;52.032;4.314;2023-06-10T01:00:06;21.10;99.90
18160;DHT22;9205;52.032;4.314;2023-06-10T01:02:36;21.10;99.90
18160;DHT22;9205;52.032;4.314;2023-06-10T01:05:04;21.10;99.90
18160;DHT22;9205;52.032;4.314;2023-06-10T01:07:40;21.00;99.90
18160;DHT22;9205;52.032;4.314;2023-06-10T01:10:18;21.00;99.90
18160;DHT22;9205;52.032;4.314;2023-06-10T01:12:55;21.00;75.70
18160;DHT22;9205;52.032;4.314;2023-06-10T01:15:29;21.00;33.70
18160;DHT22;9205;52.032;4.314;2023-06-10T01:17:59;21.00;6.00
18160;DHT22;9205;52.032;4.314;2023-06-10T01:20:31;20.90;1.00
18160;DHT22;9205;52.032;4.314;2023-06-10T01:23:01;20.90;2.00
18160;DHT22;9205;52.032;4.314;2023-06-10T01:25:31;20.80;1.00
18160;DHT22;9205;52.032;4.314;2023-06-10T01:28:14;20.80;1.00
18160;DHT22;9205;52.032;4.314;2023-06-10T01:30:52;20.80;1.00
18160;DHT22;9205;52.032;4.314;2023-06-10T01:33:28;20.80;1.00
18160;DHT22;9205;52.032;4.314;2023-06-10T01:35:59;20.80;1.00
18160;DHT22;9205;52.032;4.314;2023-06-10T01:38:32;20.70;1.00
18160;DHT22;9205;52.032;4.314;2023-06-10T01:41:04;20.70;1.00
18160;DHT22;9205;52.032;4.314;2023-06-10T01:43:34;20.70;1.00
18160;DHT22;9205;52.032;4.314;2023-06-10T01:46:01;20.70;1.00
18160;DHT22;9205;52.032;4.314;2023-06-10T01:48:31;20.60;1.00
18160;DHT22;9205;52.032;4.314;2023-06-10T01:50:58;20.60;1.00
18160;DHT22;9205;52.032;4.314;2023-06-10T01:53:26;20.60;1.00
18160;DHT22;9205;52.032;4.314;2023-06-10T01:55:56;20.50;1.00
18160;DHT22;9205;52.032;4.314;2023-06-10T01:58:25;20.50;1.00
18160;DHT22;9205;52.032;4.314;2023-06-10T02:00:53;20.50;1.00
18160;DHT22;9205;52.032;4.314;2023-06-10T02:03:21;20.40;1.00
18160;DHT22;9205;52.032;4.314;2023-06-10T02:05:49;20.40;1.00
18160;DHT22;9205;52.032;4.314;2023-06-10T02:08:16;20.40;1.00
18160;DHT22;9205;52.032;4.314;2023-06-10T02:10:44;20.40;1.00
18160;DHT22;9205;52.032;4.314;2023-06-10T02:13:16;20.40;1.00
18160;DHT22;9205;52.032;4.314;2023-06-10T02:15:44;20.40;1.00
18160;DHT22;9205;52.032;4.314;2023-06-10T02:18:12;20.40;1.00
18160;DHT22;9205;52.032;4.314;2023-06-10T02:20:40;20.30;1.00
18160;DHT22;9205;52.032;4.314;2023-06-10T02:23:08;20.30;1.00
18160;DHT22;9205;52.032;4.314;2023-06-10T02:25:36;20.20;1.00
18160;DHT22;9205;52.032;4.314;2023-06-10T02:28:04;20.20;1.00
18160;DHT22;9205;52.032;4.314;2023-06-10T02:30:33;20.20;1.00
18160;DHT22;9205;52.032;4.314;2023-06-10T02:33:01;20.20;1.00
18160;DHT22;9205;52.032;4.314;2023-06-10T02:35:29;20.20;1.00
18160;DHT22;9205;52.032;4.314;2023-06-10T02:37:56;20.10;1.00
18160;DHT22;9205;52.032;4.314;2023-06-10T02:40:27;20.10;1.00
18160;DHT22;9205;52.032;4.314;2023-06-10T02:42:55;20.10;1.00
18160;DHT22;9205;52.032;4.314;2023-06-10T02:45:24;20.10;1.00
18160;DHT22;9205;52.032;4.314;2023-06-10T02:47:53;20.00;1.00
18160;DHT22;9205;52.032;4.314;2023-06-10T02:50:21;20.00;1.00
18160;DHT22;9205;52.032;4.314;2023-06-10T02:53:08;20.00;1.00
18160;DHT22;9205;52.032;4.314;2023-06-10T02:55:41;20.00;1.00
18160;DHT22;9205;52.032;4.314;2023-06-10T02:58:12;20.00;1.00
18160;DHT22;9205;52.032;4.314;2023-06-10T03:00:43;19.90;1.00
18160;DHT22;9205;52.032;4.314;2023-06-10T03:03:13;19.90;1.00
18160;DHT22;9205;52.032;4.314;2023-06-10T03:05:54;19.90;1.00
18160;DHT22;9205;52.032;4.314;2023-06-10T03:08:23;19.80;1.00
18160;DHT22;9205;52.032;4.314;2023-06-10T03:10:52;19.80;1.00
18160;DHT22;9205;52.032;4.314;2023-06-10T03:13:20;19.80;1.00
18160;DHT22;9205;52.032;4.314;2023-06-10T03:15:48;19.70;1.00
18160;DHT22;9205;52.032;4.314;2023-06-10T03:18:20;19.70;1.00
18160;DHT22;9205;52.032;4.314;2023-06-10T03:20:49;19.70;1.00
18160;DHT22;9205;52.032;4.314;2023-06-10T03:23:18;19.70;1.00
18160;DHT22;9205;52.032;4.314;2023-06-10T03:25:46;19.60;1.00
18160;DHT22;9205;52.032;4.314;2023-06-10T03:28:17;19.60;1.00
18160;DHT22;9205;52.032;4.314;2023-06-10T03:30:44;19.60;1.00
18160;DHT22;9205;52.032;4.314;2023-06-10T03:33:12;19.60;1.00
18160;DHT22;9205;52.032;4.314;2023-06-10T03:35:43;19.60;1.00
18160;DHT22;9205;52.032;4.314;2023-06-10T03:38:11;19.60;1.00
18160;DHT22;9205;52.032;4.314;2023-06-10T03:40:39;19.50;1.00
18160;DHT22;9205;52.032;4.314;2023-06-10T03:43:07;19.50;1.00
18160;DHT22;9205;52.032;4.314;2023-06-10T03:45:35;19.50;1.00
18160;DHT22;9205;52.032;4.314;2023-06-10T03:48:04;19.50;1.00
18160;DHT22;9205;52.032;4.314;2023-06-10T03:50:44;19.50;1.00
18160;DHT22;9205;52.032;4.314;2023-06-10T03:53:13;19.40;1.00
18160;DHT22;9205;52.032;4.314;2023-06-10T03:55:42;19.50;1.00
18160;DHT22;9205;52.032;4.314;2023-06-10T03:58:10;19.40;1.00
18160;DHT22;9205;52.032;4.314;2023-06-10T04:00:41;19.40;1.00
18160;DHT22;9205;52.032;4.314;2023-06-10T04:03:08;19.40;1.00
18160;DHT22;9205;52.032;4.314;2023-06-10T04:05:46;19.40;1.00
18160;DHT22;9205;52.032;4.314;2023-06-10T04:08:13;19.40;1.00
18160;DHT22;9205;52.032;4.314;2023-06-10T04:10:42;19.40;1.00
18160;DHT22;9205;52.032;4.314;2023-06-10T04:13:11;19.40;1.00
18160;DHT22;9205;52.032;4.314;2023-06-10T04:15:48;19.30;1.00
18160;DHT22;9205;52.032;4.314;2023-06-10T04:18:17;19.30;1.00
18160;DHT22;9205;52.032;4.314;2023-06-10T04:20:47;19.30;1.00
18160;DHT22;9205;52.032;4.314;2023-06-10T04:23:17;19.30;1.00
18160;DHT22;9205;52.032;4.314;2023-06-10T04:25:46;19.30;99.90
18160;DHT22;9205;52.032;4.314;2023-06-10T04:28:14;19.30;99.90
18160;DHT22;9205;52.032;4.314;2023-06-10T04:30:42;19.30;99.90
18160;DHT22;9205;52.032;4.314;2023-06-10T04:33:11;19.30;99.90
18160;DHT22;9205;52.032;4.314;2023-06-10T04:35:40;19.30;99.90
18160;DHT22;9205;52.032;4.314;2023-06-10T04:38:12;19.30;99.90
18160;DHT22;9205;52.032;4.314;2023-06-10T04:40:40;19.30;99.90
18160;DHT22;9205;52.032;4.314;2023-06-10T04:43:10;19.30;99.90
18160;DHT22;9205;52.032;4.314;2023-06-10T04:45:38;19.40;99.90
18160;DHT22;9205;52.032;4.314;2023-06-10T04:48:11;19.40;1.00
18160;DHT22;9205;52.032;4.314;2023-06-10T04:50:39;19.40;1.00
18160;DHT22;9205;52.032;4.314;2023-06-10T04:53:07;19.40;1.00
18160;DHT22;9205;52.032;4.314;2023-06-10T04:55:38;19.40;1.00
18160;DHT22;9205;52.032;4.314;2023-06-10T04:58:06;19.40;1.00
18160;DHT22;9205;52.032;4.314;2023-06-10T05:00:34;19.50;1.00
18160;DHT22;9205;52.032;4.314;2023-06-10T05:03:01;19.50;1.00
18160;DHT22;9205;52.032;4.314;2023-06-10T05:05:29;19.50;1.00
18160;DHT22;9205;52.032;4.314;2023-06-10T05:07:57;19.50;1.00
18160;DHT22;9205;52.032;4.314;2023-06-10T05:10:25;19.50;1.00
18160;DHT22;9205;52.032;4.314;2023-06-10T05:12:58;19.50;1.00
18160;DHT22;9205;52.032;4.314;2023-06-10T05:15:27;19.50;1.00
18160;DHT22;9205;52.032;4.314;2023-06-10T05:17:57;19.60;1.00
18160;DHT22;9205;52.032;4.314;2023-06-10T05:20:25;19.60;1.00
18160;DHT22;9205;52.032;4.314;2023-06-10T05:22:54;19.60;1.00
18160;DHT22;9205;52.032;4.314;2023-06-10T05:25:22;19.60;1.00
18160;DHT22;9205;52.032;4.314;2023-06-10T05:27:49;19.70;1.00
18160;DHT22;9205;52.032;4.314;2023-06-10T05:30:18;19.70;1.00
18160;DHT22;9205;52.032;4.314;2023-06-10T05:32:45;19.70;1.00
18160;DHT22;9205;52.032;4.314;2023-06-10T05:35:13;19.70;1.00
18160;DHT22;9205;52.032;4.314;2023-06-10T05:37:41;19.80;1.00
18160;DHT22;9205;52.032;4.314;2023-06-10T05:40:10;19.80;1.00
18160;DHT22;9205;52.032;4.314;2023-06-10T05:42:38;19.80;1.00
18160;DHT22;9205;52.032;4.314;2023-06-10T05:45:07;19.90;1.00
18160;DHT22;9205;52.032;4.314;2023-06-10T05:47:40;19.90;1.00
18160;DHT22;9205;52.032;4.314;2023-06-10T05:50:08;19.90;1.00
18160;DHT22;9205;52.032;4.314;2023-06-10T05:52:36;19.90;1.00
18160;DHT22;9205;52.032;4.314;2023-06-10T05:55:12;19.90;1.00
18160;DHT22;9205;52.032;4.314;2023-06-10T05:57:41;20.00;1.00
18160;DHT22;9205;52.032;4.314;2023-06-10T06:00:10;20.00;1.00
18160;DHT22;9205;52.032;4.314;2023-06-10T06:02:40;20.10;1.00
18160;DHT22;9205;52.032;4.314;2023-06-10T06:05:09;20.10;1.00
18160;DHT22;9205;52.032;4.314;2023-06-10T06:07:37;20.10;1.00
18160;DHT22;9205;52.032;4.314;2023-06-10T06:10:07;20.20;1.00
18160;DHT22;9205;52.032;4.314;2023-06-10T06:12:37;20.20;1.00
18160;DHT22;9205;52.032;4.314;2023-06-10T06:15:05;20.20;1.00
18160;DHT22;9205;52.032;4.314;2023-06-10T06:17:34;20.30;1.00
18160;DHT22;9205;52.032;4.314;2023-06-10T06:20:09;20.30;1.00
18160;DHT22;9205;52.032;4.314;2023-06-10T06:22:37;20.40;1.00
18160;DHT22;9205;52.032;4.314;2023-06-10T06:25:05;20.40;1.00
18160;DHT22;9205;52.032;4.314;2023-06-10T06:27:43;20.40;1.00
18160;DHT22;9205;52.032;4.314;2023-06-10T06:30:14;20.50;1.00
18160;DHT22;9205;52.032;4.314;2023-06-10T06:32:45;20.60;1.00
18160;DHT22;9205;52.032;4.314;2023-06-10T06:35:15;20.60;1.00
18160;DHT22;9205;52.032;4.314;2023-06-10T06:37:43;20.60;1.00
18160;DHT22;9205;52.032;4.314;2023-06-10T06:40:23;20.70;1.00
18160;DHT22;9205;52.032;4.314;2023-06-10T06:42:51;20.80;1.00
18160;DHT22;9205;52.032;4.314;2023-06-10T06:45:33;20.80;1.00
18160;DHT22;9205;52.032;4.314;2023-06-10T06:48:01;20.90;1.00
18160;DHT22;9205;52.032;4.314;2023-06-10T06:50:31;21.00;1.00
18160;DHT22;9205;52.032;4.314;2023-06-10T06:52:59;21.00;1.00
18160;DHT22;9205;52.032;4.314;2023-06-10T06:55:27;21.10;1.00
18160;DHT22;9205;52.032;4.314;2023-06-10T06:57:54;21.10;1.00
18160;DHT22;9205;52.032;4.314;2023-06-10T07:00:22;21.20;1.00
18160;DHT22;9205;52.032;4.314;2023-06-10T07:02:51;21.20;1.00
18160;DHT22;9205;52.032;4.314;2023-06-10T07:05:19;21.30;1.00
18160;DHT22;9205;52.032;4.314;2023-06-10T07:07:47;21.30;1.00
18160;DHT22;9205;52.032;4.314;2023-06-10T07:10:20;21.40;1.00
18160;DHT22;9205;52.032;4.314;2023-06-10T07:12:49;21.50;1.00
18160;DHT22;9205;52.032;4.314;2023-06-10T07:15:17;21.60;1.00
18160;DHT22;9205;52.032;4.314;2023-06-10T07:17:45;21.60;1.00
18160;DHT22;9205;52.032;4.314;2023-06-10T07:20:14;21.70;1.00
18160;DHT22;9205;52.032;4.314;2023-06-10T07:22:41;21.80;1.00
18160;DHT22;9205;52.032;4.314;2023-06-10T07:25:11;21.90;1.00
18160;DHT22;9205;52.032;4.314;2023-06-10T07:27:39;21.90;1.00
18160;DHT22;9205;52.032;4.314;2023-06-10T07:30:08;22.00;1.00
18160;DHT22;9205;52.032;4.314;2023-06-10T07:32:36;22.10;1.00
18160;DHT22;9205;52.032;4.314;2023-06-10T07:35:07;22.20;1.00
18160;DHT22;9205;52.032;4.314;2023-06-10T07:37:36;22.30;1.00
18160;DHT22;9205;52.032;4.314;2023-06-10T07:40:04;22.30;99.90
18160;DHT22;9205;52.032;4.314;2023-06-10T07:42:36;22.40;99.90
18160;DHT22;9205;52.032;4.314;2023-06-10T07:45:05;22.50;99.90
18160;DHT22;9205;52.032;4.314;2023-06-10T07:47:34;22.60;99.90
18160;DHT22;9205;52.032;4.314;2023-06-10T07:50:05;22.60;99.90
18160;DHT22;9205;52.032;4.314;2023-06-10T07:52:40;22.80;99.90
18160;DHT22;9205;52.032;4.314;2023-06-10T07:55:08;22.90;99.90
18160;DHT22;9205;52.032;4.314;2023-06-10T07:57:40;23.00;97.60
18160;DHT22;9205;52.032;4.314;2023-06-10T08:00:08;23.10;85.70
18160;DHT22;9205;52.032;4.314;2023-06-10T08:02:39;23.10;1.00
18160;DHT22;9205;52.032;4.314;2023-06-10T08:05:07;23.30;1.00
18160;DHT22;9205;52.032;4.314;2023-06-10T08:07:36;23.30;1.00
18160;DHT22;9205;52.032;4.314;2023-06-10T08:10:07;23.40;1.00
18160;DHT22;9205;52.032;4.314;2023-06-10T08:12:39;23.50;1.00
18160;DHT22;9205;52.032;4.314;2023-06-10T08:15:09;23.50;1.00
18160;DHT22;9205;52.032;4.314;2023-06-10T08:17:37;23.60;1.00
18160;DHT22;9205;52.032;4.314;2023-06-10T08:20:07;23.70;1.00
18160;DHT22;9205;52.032;4.314;2023-06-10T08:22:36;23.80;1.00
18160;DHT22;9205;52.032;4.314;2023-06-10T08:25:06;23.80;1.00
18160;DHT22;9205;52.032;4.314;2023-06-10T08:27:35;23.90;1.00
18160;DHT22;9205;52.032;4.314;2023-06-10T08:30:07;24.00;1.00
18160;DHT22;9205;52.032;4.314;2023-06-10T08:32:36;24.00;1.00
18160;DHT22;9205;52.032;4.314;2023-06-10T08:35:07;24.20;1.00
18160;DHT22;9205;52.032;4.314;2023-06-10T08:37:37;24.20;1.00
18160;DHT22;9205;52.032;4.314;2023-06-10T08:40:10;24.30;1.00
18160;DHT22;9205;52.032;4.314;2023-06-10T08:42:43;24.30;1.00
18160;DHT22;9205;52.032;4.314;2023-06-10T08:45:21;24.40;1.00
18160;DHT22;9205;52.032;4.314;2023-06-10T08:47:51;24.50;1.00
18160;DHT22;9205;52.032;4.314;2023-06-10T08:50:37;24.60;1.00
18160;DHT22;9205;52.032;4.314;2023-06-10T08:53:06;24.70;1.00
18160;DHT22;9205;52.032;4.314;2023-06-10T08:55:36;24.80;1.00
18160;DHT22;9205;52.032;4.314;2023-06-10T08:58:09;25.00;1.00
18160;DHT22;9205;52.032;4.314;2023-06-10T09:00:43;24.90;1.00
18160;DHT22;9205;52.032;4.314;2023-06-10T09:03:11;25.00;1.00
18160;DHT22;9205;52.032;4.314;2023-06-10T09:05:41;25.00;1.00
18160;DHT22;9205;52.032;4.314;2023-06-10T09:08:11;25.00;1.00
18160;DHT22;9205;52.032;4.314;2023-06-10T09:10:43;25.10;1.00
18160;DHT22;9205;52.032;4.314;2023-06-10T09:13:12;25.10;1.00
18160;DHT22;9205;52.032;4.314;2023-06-10T09:15:45;25.40;1.00
18160;DHT22;9205;52.032;4.314;2023-06-10T09:18:15;25.50;1.00
18160;DHT22;9205;52.032;4.314;2023-06-10T09:20:43;25.50;1.00
18160;DHT22;9205;52.032;4.314;2023-06-10T09:23:12;25.60;1.00
18160;DHT22;9205;52.032;4.314;2023-06-10T09:25:55;25.70;1.00
18160;DHT22;9205;52.032;4.314;2023-06-10T09:28:25;25.70;1.00
18160;DHT22;9205;52.032;4.314;2023-06-10T09:31:05;25.80;1.00
18160;DHT22;9205;52.032;4.314;2023-06-10T09:33:40;25.80;1.00
18160;DHT22;9205;52.032;4.314;2023-06-10T09:36:11;25.80;1.00
18160;DHT22;9205;52.032;4.314;2023-06-10T09:38:41;25.80;1.00
18160;DHT22;9205;52.032;4.314;2023-06-10T09:41:15;25.90;1.00
18160;DHT22;9205;52.032;4.314;2023-06-10T09:43:48;26.00;1.00
18160;DHT22;9205;52.032;4.314;2023-06-10T09:46:18;26.10;1.00
18160;DHT22;9205;52.032;4.314;2023-06-10T09:48:49;26.10;1.00
18160;DHT22;9205;52.032;4.314;2023-06-10T09:51:18;26.20;1.00
18160;DHT22;9205;52.032;4.314;2023-06-10T09:53:48;26.40;1.00
18160;DHT22;9205;52.032;4.314;2023-06-10T09:56:18;26.30;1.00
18160;DHT22;9205;52.032;4.314;2023-06-10T09:58:53;26.40;1.00
18160;DHT22;9205;52.032;4.314;2023-06-10T10:01:36;26.40;1.00
18160;DHT22;9205;52.032;4.314;2023-06-10T10:04:04;26.50;1.00
18160;DHT22;9205;52.032;4.314;2023-06-10T10:06:34;26.50;1.00
18160;DHT22;9205;52.032;4.314;2023-06-10T10:09:04;26.70;1.00
18160;DHT22;9205;52.032;4.314;2023-06-10T10:11:34;26.80;99.90
18160;DHT22;9205;52.032;4.314;2023-06-10T10:14:04;26.70;1.00
18160;DHT22;9205;52.032;4.314;2023-06-10T10:16:36;26.70;99.90
18160;DHT22;9205;52.032;4.314;2023-06-10T10:19:20;26.70;99.90
18160;DHT22;9205;52.032;4.314;2023-06-10T10:21:55;26.80;99.90
18160;DHT22;9205;52.032;4.314;2023-06-10T10:24:38;26.80;99.90
18160;DHT22;9205;52.032;4.314;2023-06-10T10:27:14;26.90;99.90
18160;DHT22;9205;52.032;4.314;2023-06-10T10:29:54;27.10;99.90
18160;DHT22;9205;52.032;4.314;2023-06-10T10:32:31;27.20;99.90
18160;DHT22;9205;52.032;4.314;2023-06-10T10:35:08;27.20;99.90
18160;DHT22;9205;52.032;4.314;2023-06-10T10:37:48;27.20;99.90
18160;DHT22;9205;52.032;4.314;2023-06-10T10:40:23;27.50;99.90
18160;DHT22;9205;52.032;4.314;2023-06-10T10:43:01;27.50;99.90
18160;DHT22;9205;52.032;4.314;2023-06-10T10:45:33;27.60;99.90
18160;DHT22;9205;52.032;4.314;2023-06-10T10:48:15;27.70;99.90
18160;DHT22;9205;52.032;4.314;2023-06-10T10:51:06;27.80;99.90
18160;DHT22;9205;52.032;4.314;2023-06-10T10:54:13;27.90;99.90
18160;DHT22;9205;52.032;4.314;2023-06-10T10:57:12;27.90;99.90
18160;DHT22;9205;52.032;4.314;2023-06-10T10:59:55;28.10;99.90
18160;DHT22;9205;52.032;4.314;2023-06-10T11:02:50;28.40;99.90
18160;DHT22;9205;52.032;4.314;2023-06-10T11:05:59;28.60;99.90
18160;DHT22;9205;52.032;4.314;2023-06-10T11:08:57;28.80;99.90
18160;DHT22;9205;52.032;4.314;2023-06-10T11:11:43;29.00;99.90
18160;DHT22;9205;52.032;4.314;2023-06-10T11:14:41;29.20;99.90
18160;DHT22;9205;52.032;4.314;2023-06-10T11:17:31;29.40;99.90
18160;DHT22;9205;52.032;4.314;2023-06-10T11:20:01;29.70;99.90
18160;DHT22;9205;52.032;4.314;2023-06-10T11:22:58;29.90;99.90
18160;DHT22;9205;52.032;4.314;2023-06-10T11:25:40;29.80;99.90
18160;DHT22;9205;52.032;4.314;2023-06-10T11:28:18;30.00;99.90
18160;DHT22;9205;52.032;4.314;2023-06-10T11:31:02;30.30;99.90
18160;DHT22;9205;52.032;4.314;2023-06-10T11:33:33;30.10;99.90
18160;DHT22;9205;52.032;4.314;2023-06-10T11:36:07;30.40;99.90
18160;DHT22;9205;52.032;4.314;2023-06-10T11:38:37;30.60;99.90
18160;DHT22;9205;52.032;4.314;2023-06-10T11:41:07;30.50;99.90
18160;DHT22;9205;52.032;4.314;2023-06-10T11:43:43;30.60;99.90
18160;DHT22;9205;52.032;4.314;2023-06-10T11:46:15;30.70;89.00
18160;DHT22;9205;52.032;4.314;2023-06-10T11:48:59;30.80;90.30
18160;DHT22;9205;52.032;4.314;2023-06-10T11:51:41;30.70;64.00
18160;DHT22;9205;52.032;4.314;2023-06-10T11:54:17;30.90;75.60
18160;DHT22;9205;52.032;4.314;2023-06-10T11:56:50;30.80;43.10
18160;DHT22;9205;52.032;4.314;2023-06-10T11:59:31;31.30;30.60
18160;DHT22;9205;52.032;4.314;2023-06-10T12:02:00;31.30;25.00
18160;DHT22;9205;52.032;4.314;2023-06-10T12:04:29;31.40;27.90
18160;DHT22;9205;52.032;4.314;2023-06-10T12:06:57;31.40;11.70
18160;DHT22;9205;52.032;4.314;2023-06-10T12:09:28;31.40;3.30
18160;DHT22;9205;52.032;4.314;2023-06-10T12:12:00;31.70;1.00
18160;DHT22;9205;52.032;4.314;2023-06-10T12:14:51;31.20;1.00
18160;DHT22;9205;52.032;4.314;2023-06-10T12:17:35;31.30;1.00
18160;DHT22;9205;52.032;4.314;2023-06-10T12:22:54;31.10;1.00
18160;DHT22;9205;52.032;4.314;2023-06-10T12:25:35;31.30;1.00
18160;DHT22;9205;52.032;4.314;2023-06-10T12:28:05;31.60;1.00
18160;DHT22;9205;52.032;4.314;2023-06-10T12:30:37;31.50;1.00
18160;DHT22;9205;52.032;4.314;2023-06-10T12:33:16;31.40;1.00
18160;DHT22;9205;52.032;4.314;2023-06-10T12:35:50;31.00;1.00
18160;DHT22;9205;52.032;4.314;2023-06-10T12:38:23;31.10;1.00
18160;DHT22;9205;52.032;4.314;2023-06-10T12:41:04;31.30;1.00
18160;DHT22;9205;52.032;4.314;2023-06-10T12:43:41;31.50;1.00
18160;DHT22;9205;52.032;4.314;2023-06-10T12:46:10;31.10;1.00
18160;DHT22;9205;52.032;4.314;2023-06-10T12:48:49;31.00;1.00
18160;DHT22;9205;52.032;4.314;2023-06-10T12:51:28;31.20;1.00
18160;DHT22;9205;52.032;4.314;2023-06-10T12:53:58;31.30;1.00
18160;DHT22;9205;52.032;4.314;2023-06-10T12:56:38;31.30;1.00
18160;DHT22;9205;52.032;4.314;2023-06-10T12:59:06;31.20;1.00
18160;DHT22;9205;52.032;4.314;2023-06-10T13:01:34;31.20;1.00
18160;DHT22;9205;52.032;4.314;2023-06-10T13:04:04;31.40;1.00
18160;DHT22;9205;52.032;4.314;2023-06-10T13:06:33;31.60;1.00
18160;DHT22;9205;52.032;4.314;2023-06-10T13:09:06;31.50;1.00
18160;DHT22;9205;52.032;4.314;2023-06-10T13:11:39;31.50;1.00
18160;DHT22;9205;52.032;4.314;2023-06-10T13:14:13;31.60;1.00
18160;DHT22;9205;52.032;4.314;2023-06-10T13:16:42;31.90;1.00
18160;DHT22;9205;52.032;4.314;2023-06-10T13:19:15;31.90;1.00
18160;DHT22;9205;52.032;4.314;2023-06-10T13:21:43;31.90;1.00
18160;DHT22;9205;52.032;4.314;2023-06-10T13:24:14;31.80;1.00
18160;DHT22;9205;52.032;4.314;2023-06-10T13:26:45;32.00;1.00
18160;DHT22;9205;52.032;4.314;2023-06-10T13:29:12;32.00;1.00
18160;DHT22;9205;52.032;4.314;2023-06-10T13:31:40;31.60;1.00
18160;DHT22;9205;52.032;4.314;2023-06-10T13:34:10;31.70;1.00
18160;DHT22;9205;52.032;4.314;2023-06-10T13:36:40;32.00;1.00
18160;DHT22;9205;52.032;4.314;2023-06-10T13:39:11;32.00;1.00
18160;DHT22;9205;52.032;4.314;2023-06-10T13:41:41;32.10;1.00
18160;DHT22;9205;52.032;4.314;2023-06-10T13:44:24;31.80;1.00
18160;DHT22;9205;52.032;4.314;2023-06-10T13:47:04;31.90;1.00
18160;DHT22;9205;52.032;4.314;2023-06-10T13:49:34;31.90;1.00
18160;DHT22;9205;52.032;4.314;2023-06-10T13:52:06;31.80;1.00
18160;DHT22;9205;52.032;4.314;2023-06-10T13:54:36;31.70;1.00
18160;DHT22;9205;52.032;4.314;2023-06-10T13:57:05;32.20;1.00
18160;DHT22;9205;52.032;4.314;2023-06-10T13:59:52;32.00;1.00
18160;DHT22;9205;52.032;4.314;2023-06-10T14:02:23;32.20;1.00
18160;DHT22;9205;52.032;4.314;2023-06-10T14:04:59;32.20;1.00
18160;DHT22;9205;52.032;4.314;2023-06-10T14:07:34;32.00;1.00
18160;DHT22;9205;52.032;4.314;2023-06-10T14:10:04;32.10;1.00
18160;DHT22;9205;52.032;4.314;2023-06-10T14:12:36;32.00;1.00
18160;DHT22;9205;52.032;4.314;2023-06-10T14:15:08;31.90;1.00
18160;DHT22;9205;52.032;4.314;2023-06-10T14:17:40;32.20;1.00
18160;DHT22;9205;52.032;4.314;2023-06-10T14:20:09;31.90;1.00
18160;DHT22;9205;52.032;4.314;2023-06-10T14:22:44;31.80;1.00
18160;DHT22;9205;52.032;4.314;2023-06-10T14:25:33;32.00;1.00
18160;DHT22;9205;52.032;4.314;2023-06-10T14:28:19;32.00;1.00
18160;DHT22;9205;52.032;4.314;2023-06-10T14:30:55;32.20;1.00
18160;DHT22;9205;52.032;4.314;2023-06-10T14:33:40;32.20;1.00
18160;DHT22;9205;52.032;4.314;2023-06-10T14:36:09;32.00;1.00
18160;DHT22;9205;52.032;4.314;2023-06-10T14:38:45;31.80;1.00
18160;DHT22;9205;52.032;4.314;2023-06-10T14:41:14;32.20;1.00
18160;DHT22;9205;52.032;4.314;2023-06-10T14:43:43;32.30;1.00
18160;DHT22;9205;52.032;4.314;2023-06-10T14:46:15;32.20;1.00
18160;DHT22;9205;52.032;4.314;2023-06-10T14:48:54;32.10;1.00
18160;DHT22;9205;52.032;4.314;2023-06-10T14:51:25;32.10;1.00
18160;DHT22;9205;52.032;4.314;2023-06-10T14:54:08;32.20;1.00
18160;DHT22;9205;52.032;4.314;2023-06-10T14:56:37;31.80;1.00
18160;DHT22;9205;52.032;4.314;2023-06-10T14:59:23;31.90;1.00
18160;DHT22;9205;52.032;4.314;2023-06-10T15:05:00;31.80;1.00
18160;DHT22;9205;52.032;4.314;2023-06-10T15:07:27;31.90;1.00
18160;DHT22;9205;52.032;4.314;2023-06-10T15:10:08;31.60;1.00
18160;DHT22;9205;52.032;4.314;2023-06-10T15:12:51;31.50;1.00
18160;DHT22;9205;52.032;4.314;2023-06-10T15:15:31;31.60;1.00
18160;DHT22;9205;52.032;4.314;2023-06-10T15:18:00;31.60;1.00
18160;DHT22;9205;52.032;4.314;2023-06-10T15:20:41;31.50;1.00
18160;DHT22;9205;52.032;4.314;2023-06-10T15:23:23;31.50;1.00
18160;DHT22;9205;52.032;4.314;2023-06-10T15:26:11;31.80;1.00
18160;DHT22;9205;52.032;4.314;2023-06-10T15:28:55;31.70;1.00
18160;DHT22;9205;52.032;4.314;2023-06-10T15:31:39;31.40;1.00
18160;DHT22;9205;52.032;4.314;2023-06-10T15:34:24;31.60;1.00
18160;DHT22;9205;52.032;4.314;2023-06-10T15:37:04;31.70;1.00
18160;DHT22;9205;52.032;4.314;2023-06-10T15:39:49;31.70;1.00
18160;DHT22;9205;52.032;4.314;2023-06-10T15:42:19;31.70;1.00
18160;DHT22;9205;52.032;4.314;2023-06-10T15:44:55;31.60;1.00
18160;DHT22;9205;52.032;4.314;2023-06-10T15:47:24;31.30;1.00
18160;DHT22;9205;52.032;4.314;2023-06-10T15:49:58;31.30;1.00
18160;DHT22;9205;52.032;4.314;2023-06-10T15:52:27;31.40;1.00
18160;DHT22;9205;52.032;4.314;2023-06-10T15:55:01;31.30;1.00
18160;DHT22;9205;52.032;4.314;2023-06-10T15:57:29;31.20;1.00
18160;DHT22;9205;52.032;4.314;2023-06-10T16:00:00;31.20;1.00
18160;DHT22;9205;52.032;4.314;2023-06-10T16:02:36;31.30;1.00
18160;DHT22;9205;52.032;4.314;2023-06-10T16:05:08;31.30;1.00
18160;DHT22;9205;52.032;4.314;2023-06-10T16:07:40;31.20;1.00
18160;DHT22;9205;52.032;4.314;2023-06-10T16:10:09;31.10;1.00
18160;DHT22;9205;52.032;4.314;2023-06-10T16:12:38;31.00;1.00
18160;DHT22;9205;52.032;4.314;2023-06-10T16:15:07;30.90;1.00
18160;DHT22;9205;52.032;4.314;2023-06-10T16:17:39;30.80;1.00
18160;DHT22;9205;52.032;4.314;2023-06-10T16:20:11;30.80;1.00
18160;DHT22;9205;52.032;4.314;2023-06-10T16:22:40;30.70;1.00
18160;DHT22;9205;52.032;4.314;2023-06-10T16:25:08;30.90;1.00
18160;DHT22;9205;52.032;4.314;2023-06-10T16:27:40;30.80;1.00
18160;DHT22;9205;52.032;4.314;2023-06-10T16:30:11;30.60;1.00
18160;DHT22;9205;52.032;4.314;2023-06-10T16:32:51;30.70;1.00
18160;DHT22;9205;52.032;4.314;2023-06-10T16:35:24;30.90;1.00